createdAt,value
2018-07-02T00:01:07.997Z,46.07
2018-07-02T00:06:32.773Z,45.31
2018-07-02T00:11:36.281Z,47.32
2018-07-02T00:16:40.432Z,46.29
2018-07-02T00:21:43.950Z,47.22
2018-07-02T00:26:48.635Z,47.88
2018-07-02T00:31:52.176Z,48.74
2018-07-02T00:36:55.952Z,47.95
2018-07-02T00:42:00.125Z,47.87
2018-07-02T00:47:03.693Z,47.33
2018-07-02T00:52:07.544Z,48.09
2018-07-02T00:57:17.047Z,47.88
2018-07-02T01:02:20.600Z,48.22
2018-07-02T01:07:24.324Z,48.78
2018-07-02T01:12:27.917Z,48.15
2018-07-02T01:17:32.026Z,48.56
2018-07-02T01:22:35.529Z,48.95
2018-07-02T01:27:39.089Z,48.20
2018-07-02T01:32:43.865Z,48.54
2018-07-02T01:37:47.631Z,48.79
2018-07-02T01:42:51.150Z,48.83
2018-07-02T01:47:54.749Z,48.04
2018-07-02T01:52:58.465Z,48.38
2018-07-02T01:58:02.120Z,47.80
2018-07-02T02:03:05.807Z,48.84
2018-07-02T02:08:09.784Z,48.65
2018-07-02T02:13:13.927Z,48.16
2018-07-02T02:18:17.749Z,48.56
2018-07-02T02:23:21.265Z,48.56
2018-07-02T02:28:28.169Z,49.15
2018-07-02T02:33:32.669Z,49.33
2018-07-02T02:38:36.229Z,48.96
2018-07-02T02:43:39.795Z,49.43
2018-07-02T02:48:43.742Z,49.62
2018-07-02T02:53:47.331Z,49.81
2018-07-02T02:58:51.501Z,50.14
2018-07-02T03:03:55.077Z,50.68
2018-07-02T03:08:58.659Z,49.96
2018-07-02T03:14:02.259Z,50.06
2018-07-02T03:19:06.288Z,51.19
2018-07-02T03:24:10.235Z,50.71
2018-07-02T03:29:13.880Z,50.71
2018-07-02T03:34:18.356Z,50.72
2018-07-02T03:39:21.877Z,50.32
2018-07-02T03:44:25.674Z,51.15
2018-07-02T03:49:29.304Z,50.04
2018-07-02T03:54:33.054Z,50.41
2018-07-02T03:59:36.687Z,49.99
2018-07-02T04:04:40.966Z,48.40
2018-07-02T04:09:44.579Z,48.38
2018-07-02T04:14:48.660Z,48.65
2018-07-02T04:19:52.709Z,48.72
2018-07-02T04:24:56.406Z,49.41
2018-07-02T04:29:59.927Z,50.02
2018-07-02T04:35:03.630Z,50.38
2018-07-02T04:40:07.267Z,49.68
2018-07-02T04:45:10.927Z,49.84
2018-07-02T04:50:14.509Z,49.36
2018-07-02T04:55:18.080Z,46.33
2018-07-02T05:00:21.637Z,41.24
2018-07-02T05:05:25.312Z,36.94
2018-07-02T05:10:28.873Z,37.61
2018-07-02T05:15:32.387Z,35.57
2018-07-02T05:20:35.914Z,35.18
2018-07-02T05:25:39.383Z,38.04
2018-07-02T05:30:44.062Z,41.74
2018-07-02T05:35:47.549Z,43.43
2018-07-02T05:40:51.265Z,44.28
2018-07-02T05:45:55.861Z,43.20
2018-07-02T05:50:59.945Z,42.42
2018-07-02T05:56:03.530Z,43.10
2018-07-02T06:01:07.049Z,41.52
2018-07-02T06:06:10.814Z,41.56
2018-07-02T06:11:14.356Z,41.60
2018-07-02T06:16:18.316Z,41.89
2018-07-02T06:21:23.722Z,40.80
2018-07-02T06:26:27.310Z,41.10
2018-07-02T06:31:30.889Z,40.22
2018-07-02T06:36:34.483Z,40.44
2018-07-02T06:41:38.238Z,39.91
2018-07-02T06:46:41.716Z,38.76
2018-07-02T06:51:45.670Z,39.57
2018-07-02T06:56:49.461Z,38.69
2018-07-02T07:01:53.158Z,38.11
2018-07-02T07:06:56.841Z,38.29
2018-07-02T07:12:00.745Z,36.13
2018-07-02T07:17:04.210Z,37.15
2018-07-02T07:22:08.097Z,36.69
2018-07-02T07:27:11.587Z,35.70
2018-07-02T07:32:15.284Z,35.37
2018-07-02T07:37:19.622Z,34.76
2018-07-02T07:42:23.345Z,32.72
2018-07-02T07:47:27.040Z,34.75
2018-07-02T07:52:30.757Z,33.75
2018-07-02T07:57:34.240Z,33.32
2018-07-02T08:02:37.799Z,33.38
2018-07-02T08:07:41.396Z,32.22
2018-07-02T08:12:45.307Z,31.14
2018-07-02T08:17:48.786Z,31.79
2018-07-02T08:22:52.521Z,32.25
2018-07-02T08:27:56.578Z,32.87
2018-07-02T08:33:00.184Z,32.52
2018-07-02T08:38:03.779Z,32.14
2018-07-02T08:43:07.349Z,31.41
2018-07-02T08:48:11.150Z,30.47
2018-07-02T08:53:14.684Z,31.23
2018-07-02T08:58:18.181Z,31.63
2018-07-02T09:03:22.325Z,30.61
2018-07-02T09:08:25.785Z,31.12
2018-07-02T09:13:29.295Z,31.95
2018-07-02T09:18:32.942Z,30.93
2018-07-02T09:23:36.588Z,31.25
2018-07-02T09:28:40.993Z,31.46
2018-07-02T09:33:45.357Z,31.01
2018-07-02T09:38:48.876Z,30.76
2018-07-02T09:43:52.410Z,30.04
2018-07-02T09:48:56.007Z,30.98
2018-07-02T09:54:00.282Z,30.94
2018-07-02T09:59:04.436Z,30.52
2018-07-02T10:04:08.323Z,30.62
2018-07-02T10:09:12.979Z,30.41
2018-07-02T10:14:16.985Z,29.60
2018-07-02T10:19:20.473Z,30.38
2018-07-02T10:24:25.381Z,29.57
2018-07-02T10:29:29.752Z,29.03
2018-07-02T10:34:34.493Z,29.39
2018-07-02T10:39:37.956Z,29.94
2018-07-02T10:44:41.549Z,29.32
2018-07-02T10:49:45.029Z,29.03
2018-07-02T10:54:50.689Z,28.94
2018-07-02T10:59:54.184Z,28.89
2018-07-02T11:04:57.775Z,28.86
2018-07-02T11:10:02.154Z,28.09
2018-07-02T11:15:06.399Z,29.04
2018-07-02T11:20:09.895Z,29.32
2018-07-02T11:25:13.601Z,28.02
2018-07-02T11:30:21.852Z,27.59
2018-07-02T11:35:25.435Z,29.96
2018-07-02T11:40:28.914Z,29.36
2018-07-02T11:45:32.446Z,28.71
2018-07-02T11:50:36.023Z,29.49
2018-07-02T11:55:39.590Z,28.50
2018-07-02T12:00:48.157Z,28.34
2018-07-02T12:05:51.927Z,29.21
2018-07-02T12:10:56.348Z,28.80
2018-07-02T12:15:59.919Z,29.30
2018-07-02T12:21:04.526Z,28.99
2018-07-02T12:26:08.207Z,28.54
2018-07-02T12:31:11.709Z,28.25
2018-07-02T12:36:15.781Z,28.58
2018-07-02T12:41:19.263Z,27.17
2018-07-02T12:46:22.845Z,27.32
2018-07-02T12:51:26.327Z,28.58
2018-07-02T12:56:31.832Z,28.44
2018-07-02T13:01:36.310Z,28.09
2018-07-02T13:06:39.941Z,29.30
2018-07-02T13:11:43.452Z,28.62
2018-07-02T13:16:47.083Z,28.27
2018-07-02T13:21:50.613Z,28.08
2018-07-02T13:26:54.245Z,28.55
2018-07-02T13:31:57.779Z,28.29
2018-07-02T13:37:01.302Z,28.89
2018-07-02T13:42:04.824Z,27.65
2018-07-02T13:47:08.344Z,28.43
2018-07-02T13:52:11.853Z,28.60
2018-07-02T13:57:16.289Z,27.45
2018-07-02T14:02:19.844Z,28.17
2018-07-02T14:07:23.521Z,28.52
2018-07-02T14:12:27.054Z,28.62
2018-07-02T14:17:30.644Z,28.47
2018-07-02T14:22:34.204Z,28.30
2018-07-02T14:27:37.793Z,28.19
2018-07-02T14:32:41.305Z,28.29
2018-07-02T14:37:45.200Z,27.74
2018-07-02T14:42:49.263Z,28.07
2018-07-02T14:47:52.886Z,27.98
2018-07-02T14:52:56.565Z,27.56
2018-07-02T14:58:00.091Z,27.55
2018-07-02T15:03:04.976Z,27.51
2018-07-02T15:08:08.502Z,26.93
2018-07-02T15:13:12.216Z,27.27
2018-07-02T15:18:16.227Z,26.91
2018-07-02T15:23:20.786Z,25.52
2018-07-02T15:28:24.476Z,25.37
2018-07-02T15:33:28.087Z,25.35
2018-07-02T15:38:32.237Z,25.82
2018-07-02T15:43:36.073Z,25.85
2018-07-02T15:48:39.537Z,25.63
2018-07-02T15:53:43.214Z,24.91
2018-07-02T15:58:47.212Z,24.33
2018-07-02T16:03:51.178Z,24.85
2018-07-02T16:08:55.337Z,23.72
2018-07-02T16:13:59.760Z,23.82
2018-07-02T16:19:04.076Z,23.90
2018-07-02T16:24:10.172Z,23.82
2018-07-02T16:29:13.912Z,23.13
2018-07-02T16:34:17.912Z,23.78
2018-07-02T16:39:21.508Z,23.56
2018-07-02T16:44:25.288Z,22.76
2018-07-02T16:49:28.747Z,21.72
2018-07-02T16:54:32.434Z,22.60
2018-07-02T16:59:36.817Z,22.44
2018-07-02T17:04:40.360Z,23.45
2018-07-02T17:09:43.866Z,24.66
2018-07-02T17:14:47.741Z,24.63
2018-07-02T17:19:51.244Z,25.42
2018-07-02T17:24:54.950Z,25.28
2018-07-02T17:29:58.465Z,25.17
2018-07-02T17:35:02.469Z,25.66
2018-07-02T17:40:08.165Z,25.79
2018-07-02T17:45:11.714Z,25.60
2018-07-02T17:50:15.287Z,25.82
2018-07-02T17:55:19.995Z,26.33
2018-07-02T18:00:31.233Z,26.47
2018-07-02T18:05:34.792Z,26.75
2018-07-02T18:10:38.986Z,26.87
2018-07-02T18:15:42.558Z,26.47
2018-07-02T18:20:46.060Z,27.87
2018-07-02T18:25:49.650Z,26.27
2018-07-02T18:30:54.016Z,26.78
2018-07-02T18:35:58.442Z,27.47
2018-07-02T18:41:01.979Z,27.63
2018-07-02T18:46:05.653Z,28.31
2018-07-02T18:51:11.659Z,29.18
2018-07-02T18:56:15.429Z,29.28
2018-07-02T19:01:19.430Z,30.06
2018-07-02T19:06:23.585Z,29.80
2018-07-02T19:11:27.320Z,30.71
2018-07-02T19:16:30.846Z,31.02
2018-07-02T19:21:34.907Z,31.27
2018-07-02T19:26:39.792Z,31.42
2018-07-02T19:31:43.817Z,30.79
2018-07-02T19:36:47.331Z,31.82
2018-07-02T19:41:50.852Z,32.06
2018-07-02T19:46:54.416Z,32.75
2018-07-02T19:51:58.386Z,33.81
2018-07-02T19:57:01.984Z,34.68
2018-07-02T20:02:05.777Z,34.60
2018-07-02T20:07:09.378Z,36.28
2018-07-02T20:12:13.479Z,36.15
2018-07-02T20:17:18.126Z,36.93
2018-07-02T20:22:22.271Z,37.12
2018-07-02T20:27:26.651Z,37.82
2018-07-02T20:32:30.403Z,38.90
2018-07-02T20:37:34.559Z,39.99
2018-07-02T20:42:38.083Z,40.28
2018-07-02T20:47:41.614Z,41.11
2018-07-02T20:52:45.124Z,40.74
2018-07-02T20:57:50.299Z,41.26
2018-07-02T21:02:53.930Z,41.56
2018-07-02T21:07:57.593Z,42.55
2018-07-02T21:13:01.085Z,42.52
2018-07-02T21:18:04.683Z,42.80
2018-07-02T21:23:08.161Z,44.14
2018-07-02T21:28:12.794Z,43.19
2018-07-02T21:33:16.347Z,43.49
2018-07-02T21:38:19.949Z,42.59
2018-07-02T21:43:23.516Z,43.38
2018-07-02T21:48:27.142Z,43.80
2018-07-02T21:53:31.000Z,43.63
2018-07-02T21:58:34.588Z,44.50
2018-07-02T22:03:38.795Z,44.33
2018-07-02T22:08:43.354Z,44.63
2018-07-02T22:13:47.534Z,44.91
2018-07-02T22:18:51.487Z,45.27
2018-07-02T22:23:55.368Z,45.75
2018-07-02T22:28:58.837Z,46.89
2018-07-02T22:34:03.334Z,46.68
2018-07-02T22:39:10.400Z,47.21
2018-07-02T22:44:13.925Z,47.63
2018-07-02T22:49:17.452Z,48.15
2018-07-02T22:54:21.399Z,47.13
2018-07-02T22:59:24.925Z,48.95
2018-07-02T23:04:28.517Z,48.36
2018-07-02T23:09:32.093Z,47.69
2018-07-02T23:14:35.878Z,49.43
2018-07-02T23:19:39.933Z,49.56
2018-07-02T23:24:43.534Z,49.70
2018-07-02T23:29:47.271Z,50.31
2018-07-02T23:34:50.881Z,51.16
2018-07-02T23:39:54.440Z,51.24
2018-07-02T23:44:57.984Z,51.09
2018-07-02T23:50:01.493Z,52.16
2018-07-02T23:55:05.739Z,52.01
